Time;durP1;ratioP1;P1;durP2;ratioP2;P2;SDS_P1;SDS_P2;PMS_P1;PMS_P2;Temp;Humidity;BMP_temperature;BMP_pressure;BME280_temperature;BME280_humidity;BME280_pressure;Samples;Min_cycle;Max_cycle;Signal;HPM_P1;HPM_P2
2022/02/13 00:00:24;;;;;;;13.25;6.72;;;;;;;0.96;100.00;98370.44;4951379;28;20051;-77
2022/02/13 00:02:51;;;;;;;14.73;6.53;;;;;;;0.93;100.00;98374.41;4950890;28;20187;-78
2022/02/13 00:05:17;;;;;;;15.93;7.15;;;;;;;0.89;100.00;98370.59;4950359;28;20771;-78
2022/02/13 00:07:45;;;;;;;15.82;6.47;;;;;;;0.84;100.00;98367.81;4951138;28;20115;-78
2022/02/13 00:10:13;;;;;;;15.98;6.90;;;;;;;0.98;100.00;98353.16;4935276;28;20052;-78
2022/02/13 00:12:40;;;;;;;17.13;6.70;;;;;;;1.09;100.00;98357.66;4930457;29;20583;-78
2022/02/13 00:15:07;;;;;;;11.98;5.78;;;;;;;1.16;100.00;98354.88;4944779;29;20059;-77
2022/02/13 00:17:34;;;;;;;15.55;6.75;;;;;;;1.08;100.00;98344.59;4952085;28;20526;-78
2022/02/13 00:20:19;;;;;;;14.35;6.50;;;;;;;1.05;100.00;98356.53;4949625;28;20051;-79
2022/02/13 00:22:45;;;;;;;15.27;6.57;;;;;;;1.05;100.00;98367.19;4934040;29;20504;-78
2022/02/13 00:25:12;;;;;;;12.38;6.40;;;;;;;0.98;100.00;98352.38;4938866;29;20052;-78
2022/02/13 00:27:39;;;;;;;12.98;7.10;;;;;;;1.06;100.00;98358.13;4957359;28;20114;-78
2022/02/13 00:30:09;;;;;;;15.38;6.93;;;;;;;1.08;100.00;98350.75;4952658;29;20125;-77
2022/02/13 00:32:35;;;;;;;14.57;6.82;;;;;;;1.02;100.00;98353.53;4938590;29;20199;-77
2022/02/13 00:35:02;;;;;;;14.98;7.18;;;;;;;0.97;100.00;98326.75;4936252;29;20081;-77
2022/02/13 00:37:29;;;;;;;15.10;6.65;;;;;;;1.01;100.00;98331.38;4934616;29;20405;-77
2022/02/13 00:39:58;;;;;;;14.50;6.70;;;;;;;1.13;100.00;98323.34;4934319;29;20102;-77
2022/02/13 00:42:24;;;;;;;17.13;7.43;;;;;;;1.21;100.00;98323.78;4944167;29;20047;-76
2022/02/13 00:44:51;;;;;;;14.07;6.40;;;;;;;1.26;100.00;98309.75;4954854;29;20052;-76
2022/02/13 00:47:18;;;;;;;11.80;6.50;;;;;;;1.34;100.00;98304.03;4944575;29;20048;-77
2022/02/13 00:49:44;;;;;;;15.60;6.43;;;;;;;1.38;100.00;98291.00;4932229;29;20107;-74
2022/02/13 00:52:11;;;;;;;11.93;5.70;;;;;;;1.39;100.00;98313.97;4932740;29;20094;-77
2022/02/13 00:54:38;;;;;;;13.50;6.40;;;;;;;1.45;100.00;98321.00;4932852;29;20056;-77
2022/02/13 00:57:05;;;;;;;14.57;6.53;;;;;;;1.42;100.00;98318.84;4933329;29;20047;-78
2022/02/13 00:59:32;;;;;;;15.63;6.18;;;;;;;1.32;100.00;98321.31;4933014;29;20402;-76
2022/02/13 01:01:59;;;;;;;13.35;6.18;;;;;;;1.24;100.00;98317.97;4948247;29;20102;-77
2022/02/13 01:04:25;;;;;;;16.20;6.28;;;;;;;1.21;100.00;98310.44;4951272;29;20596;-78
2022/02/13 01:06:52;;;;;;;12.80;5.72;;;;;;;1.19;100.00;98311.72;4952658;28;20040;-80
2022/02/13 01:09:18;;;;;;;12.88;6.30;;;;;;;1.12;100.00;98313.72;4951419;29;20051;-77
2022/02/13 01:11:45;;;;;;;13.98;6.18;;;;;;;1.09;100.00;98308.88;4951445;28;20051;-77
2022/02/13 01:14:15;;;;;;;12.77;6.55;;;;;;;1.02;100.00;98316.19;4951621;28;20130;-79
2022/02/13 01:16:42;;;;;;;14.40;5.70;;;;;;;0.82;100.00;98300.63;4952884;28;20043;-78
2022/02/13 01:19:08;;;;;;;15.27;6.43;;;;;;;0.87;100.00;98311.38;4951881;28;20051;-77
2022/02/13 01:21:35;;;;;;;18.40;7.63;;;;;;;0.90;100.00;98316.25;4952168;28;20062;-78
2022/02/13 01:24:01;;;;;;;19.13;7.28;;;;;;;0.87;100.00;98307.91;4951564;28;20440;-78
2022/02/13 01:26:28;;;;;;;21.05;9.82;;;;;;;0.84;100.00;98306.53;4951770;29;20456;-78
2022/02/13 01:28:55;;;;;;;18.02;7.00;;;;;;;0.63;100.00;98304.47;4951984;28;20484;-78
2022/02/13 01:31:21;;;;;;;15.63;7.13;;;;;;;0.58;100.00;98296.38;4950231;29;20047;-78
2022/02/13 01:33:48;;;;;;;17.48;7.55;;;;;;;0.57;100.00;98292.91;4950537;28;20468;-78
2022/02/13 01:36:15;;;;;;;17.98;7.40;;;;;;;0.45;100.00;98292.13;4949026;29;20055;-78
2022/02/13 01:38:42;;;;;;;19.40;7.45;;;;;;;0.38;100.00;98291.44;4950226;28;20047;-76
2022/02/13 01:41:08;;;;;;;15.55;6.43;;;;;;;0.17;100.00;98292.03;4951619;28;20599;-76
2022/02/13 01:43:35;;;;;;;12.88;6.18;;;;;;;0.00;100.00;98286.59;4951073;29;20055;-77
2022/02/13 01:46:02;;;;;;;14.18;6.15;;;;;;;0.08;100.00;98271.34;4950528;29;20056;-78
2022/02/13 01:48:32;;;;;;;15.85;6.97;;;;;;;0.04;100.00;98273.63;4950007;29;20051;-78
2022/02/13 01:50:59;;;;;;;14.13;6.00;;;;;;;-0.07;100.00;98277.09;4950937;28;20059;-78
2022/02/13 01:53:43;;;;;;;18.38;6.55;;;;;;;0.11;100.00;98265.53;4952711;28;20087;-78
2022/02/13 01:56:12;;;;;;;14.13;6.40;;;;;;;-0.14;100.00;98260.44;4955252;29;20122;-78
2022/02/13 01:58:39;;;;;;;15.93;6.70;;;;;;;0.06;100.00;98254.75;4954951;28;20819;-78
2022/02/13 02:01:05;;;;;;;17.35;7.38;;;;;;;-0.02;100.00;98255.94;4955325;28;20054;-77
2022/02/13 02:03:32;;;;;;;14.63;7.43;;;;;;;0.03;100.00;98240.06;4955751;28;20051;-78
2022/02/13 02:05:59;;;;;;;16.60;6.95;;;;;;;0.16;100.00;98241.66;4954774;28;20467;-77
2022/02/13 02:08:26;;;;;;;14.27;6.60;;;;;;;0.18;100.00;98242.28;4953507;29;20058;-77
2022/02/13 02:10:55;;;;;;;15.70;7.10;;;;;;;0.31;100.00;98256.13;4955368;28;20059;-77
2022/02/13 02:13:22;;;;;;;17.38;6.95;;;;;;;0.32;100.00;98239.13;4955631;28;20051;-76
2022/02/13 02:15:48;;;;;;;15.65;6.97;;;;;;;0.35;100.00;98246.66;4954676;28;20101;-78
2022/02/13 02:18:15;;;;;;;15.50;6.60;;;;;;;0.35;100.00;98243.97;4954528;28;20130;-78
2022/02/13 02:20:43;;;;;;;17.58;6.97;;;;;;;0.27;100.00;98244.34;4954307;28;20137;-78
2022/02/13 02:23:10;;;;;;;13.13;6.65;;;;;;;0.17;100.00;98236.13;4952828;29;20059;-78
2022/02/13 02:25:37;;;;;;;19.88;7.43;;;;;;;0.19;100.00;98236.72;4955187;29;20055;-78
2022/02/13 02:28:03;;;;;;;19.75;7.00;;;;;;;0.17;100.00;98240.66;4958801;28;20116;-78
2022/02/13 02:30:30;;;;;;;15.05;6.78;;;;;;;0.12;100.00;98229.88;4954304;28;20452;-78
2022/02/13 02:32:56;;;;;;;14.55;6.68;;;;;;;0.15;100.00;98242.75;4953982;28;20062;-79
2022/02/13 02:35:23;;;;;;;19.80;6.95;;;;;;;-0.02;100.00;98246.09;4953885;28;20465;-77
2022/02/13 02:37:49;;;;;;;18.67;6.72;;;;;;;-0.09;100.00;98239.28;4954484;28;20047;-78
2022/02/13 02:40:17;;;;;;;16.38;6.95;;;;;;;-0.19;100.00;98231.88;4954075;28;20119;-77
2022/02/13 02:42:45;;;;;;;18.40;7.32;;;;;;;-0.11;100.00;98220.91;4954233;28;20071;-79
2022/02/13 02:45:13;;;;;;;17.60;7.60;;;;;;;-0.11;100.00;98231.53;4957442;28;20051;-78
2022/02/13 02:47:42;;;;;;;27.10;9.18;;;;;;;-0.50;100.00;98218.09;4954928;28;20542;-78
2022/02/13 02:50:12;;;;;;;17.95;8.07;;;;;;;-0.28;100.00;98227.13;4950298;29;20540;-78
2022/02/13 02:52:38;;;;;;;17.60;7.88;;;;;;;-0.46;100.00;98216.56;4954331;28;20083;-78
2022/02/13 02:55:06;;;;;;;17.92;7.90;;;;;;;-0.37;100.00;98233.84;4954779;28;20059;-79
2022/02/13 02:57:33;;;;;;;20.17;8.48;;;;;;;-0.33;100.00;98224.34;4954056;28;20087;-78
2022/02/13 03:00:01;;;;;;;17.20;7.70;;;;;;;-0.63;100.00;98225.25;4953150;28;20114;-78
2022/02/13 03:02:27;;;;;;;18.27;7.85;;;;;;;-0.48;100.00;98226.66;4955624;28;20110;-78
2022/02/13 03:04:55;;;;;;;17.58;7.45;;;;;;;-0.35;100.00;98229.91;4954577;28;20048;-78
2022/02/13 03:07:22;;;;;;;17.42;7.45;;;;;;;-0.31;100.00;98212.44;4954277;28;20051;-78
2022/02/13 03:09:49;;;;;;;17.13;7.50;;;;;;;-0.30;100.00;98230.03;4953810;29;20135;-76
2022/02/13 03:12:16;;;;;;;17.17;6.93;;;;;;;-0.34;100.00;98222.75;4953997;28;20059;-78
2022/02/13 03:14:43;;;;;;;15.30;7.25;;;;;;;-0.30;100.00;98218.56;4953464;29;20110;-77
2022/02/13 03:17:09;;;;;;;14.52;7.50;;;;;;;-0.21;100.00;98215.34;4952464;29;20058;-76
2022/02/13 03:19:37;;;;;;;17.58;7.22;;;;;;;-0.14;100.00;98213.38;4952880;28;20079;-76
2022/02/13 03:22:04;;;;;;;18.60;7.60;;;;;;;-0.17;100.00;98197.03;4953552;28;20097;-77
2022/02/13 03:24:31;;;;;;;19.13;7.60;;;;;;;-0.11;100.00;98207.59;4953587;28;20047;-78
2022/02/13 03:26:58;;;;;;;16.40;7.70;;;;;;;-0.09;100.00;98200.19;4954552;28;20110;-77
2022/02/13 03:29:25;;;;;;;20.02;7.00;;;;;;;-0.14;100.00;98205.38;4955243;28;20063;-77
2022/02/13 03:31:53;;;;;;;13.70;7.38;;;;;;;-0.19;100.00;98199.97;4955324;28;20090;-77
2022/02/13 03:34:19;;;;;;;15.52;6.82;;;;;;;-0.22;100.00;98195.09;4956276;28;20488;-77
2022/02/13 03:36:46;;;;;;;20.10;7.38;;;;;;;-0.15;100.00;98211.75;4960924;28;20114;-77
2022/02/13 03:39:13;;;;;;;17.30;7.15;;;;;;;-0.08;100.00;98207.09;4956117;28;20047;-77
2022/02/13 03:41:39;;;;;;;15.50;7.30;;;;;;;-0.12;100.00;98197.97;4957737;28;20417;-79
2022/02/13 03:44:08;;;;;;;18.67;7.80;;;;;;;-0.06;100.00;98205.03;4957826;28;20062;-79
2022/02/13 03:46:35;;;;;;;18.55;8.00;;;;;;;0.11;100.00;98204.31;4959637;28;20185;-79
2022/02/13 03:49:03;;;;;;;16.33;7.70;;;;;;;0.09;100.00;98187.75;4957155;28;20463;-78
2022/02/13 03:51:29;;;;;;;18.83;7.57;;;;;;;0.04;100.00;98192.97;4965953;28;20059;-79
2022/02/13 03:53:56;;;;;;;18.05;7.88;;;;;;;0.13;100.00;98186.28;4975809;28;20031;-79
2022/02/13 03:56:22;;;;;;;18.10;7.80;;;;;;;0.23;100.00;98191.81;4968506;28;20051;-75
2022/02/13 03:58:49;;;;;;;16.33;7.30;;;;;;;0.21;100.00;98188.53;4956721;28;20511;-77
2022/02/13 04:01:15;;;;;;;15.65;7.20;;;;;;;0.25;100.00;98189.72;4964280;29;20066;-78
2022/02/13 04:03:42;;;;;;;15.48;7.07;;;;;;;0.16;100.00;98180.44;4978324;28;20039;-79
2022/02/13 04:06:08;;;;;;;17.55;7.07;;;;;;;0.23;100.00;98191.81;4974703;28;20081;-77
2022/02/13 04:08:35;;;;;;;15.23;7.18;;;;;;;0.23;100.00;98191.81;4955036;28;20047;-77
2022/02/13 04:11:02;;;;;;;14.25;6.78;;;;;;;0.14;100.00;98179.88;4957856;29;20062;-79
2022/02/13 04:13:28;;;;;;;15.20;6.88;;;;;;;-0.08;100.00;98196.47;4952634;29;20118;-80
2022/02/13 04:15:55;;;;;;;19.60;7.40;;;;;;;0.02;100.00;98206.53;4952960;28;20078;-77
2022/02/13 04:18:23;;;;;;;19.92;7.45;;;;;;;-0.11;100.00;98198.78;4952870;28;20058;-76
2022/02/13 04:20:49;;;;;;;16.70;7.60;;;;;;;-0.16;100.00;98196.03;4954257;28;20137;-78
2022/02/13 04:23:16;;;;;;;20.08;8.68;;;;;;;-0.28;100.00;98180.03;4953846;28;20360;-78
2022/02/13 04:25:43;;;;;;;18.95;7.78;;;;;;;-0.21;100.00;98186.09;4953358;28;20106;-77
2022/02/13 04:28:09;;;;;;;17.17;6.88;;;;;;;-0.15;100.00;98187.78;4953417;28;20078;-78
2022/02/13 04:30:36;;;;;;;18.60;8.18;;;;;;;-0.32;100.00;98172.78;4952740;28;20056;-78
2022/02/13 04:33:03;;;;;;;18.95;7.93;;;;;;;-0.20;100.00;98176.22;4954097;28;20508;-78
2022/02/13 04:35:29;;;;;;;15.48;7.63;;;;;;;-0.30;100.00;98152.88;4956678;28;20125;-78
2022/02/13 04:37:56;;;;;;;16.52;7.55;;;;;;;-0.14;100.00;98160.16;4957784;28;20464;-78
2022/02/13 04:40:24;;;;;;;17.60;6.97;;;;;;;-0.01;100.00;98167.91;4953313;28;20074;-78
2022/02/13 04:42:51;;;;;;;17.58;7.07;;;;;;;0.05;100.00;98168.81;4953015;28;20054;-77
2022/02/13 04:45:18;;;;;;;20.40;7.93;;;;;;;-0.01;100.00;98154.59;4940645;28;20059;-78
2022/02/13 04:47:44;;;;;;;17.50;7.32;;;;;;;-0.03;100.00;98169.16;4934177;29;20051;-78
2022/02/13 04:50:20;;;;;;;17.00;7.32;;;;;;;-0.06;100.00;98165.13;4932887;29;20083;-77
2022/02/13 04:52:52;;;;;;;17.63;7.13;;;;;;;-0.11;100.00;98154.38;4934415;29;20075;-77
2022/02/13 04:55:21;;;;;;;16.13;7.72;;;;;;;-0.19;100.00;98152.06;4934844;29;20059;-78
2022/02/13 04:57:48;;;;;;;14.18;7.32;;;;;;;-0.18;100.00;98153.66;4935904;29;20047;-78
2022/02/13 05:00:17;;;;;;;18.67;7.68;;;;;;;-0.15;100.00;98150.53;4934340;29;20151;-79
2022/02/13 05:02:45;;;;;;;15.63;7.45;;;;;;;-0.21;100.00;98154.16;4934641;29;20063;-77
2022/02/13 05:05:12;;;;;;;15.95;8.02;;;;;;;-0.16;100.00;98132.97;4932951;29;20052;-77
2022/02/13 05:07:39;;;;;;;17.50;7.55;;;;;;;-0.18;100.00;98140.38;4932992;29;20454;-78
2022/02/13 05:10:07;;;;;;;15.07;7.22;;;;;;;-0.10;100.00;98134.69;4933182;29;20047;-79
2022/02/13 05:12:33;;;;;;;19.10;8.05;;;;;;;-0.03;100.00;98123.94;4933425;29;20583;-77
2022/02/13 05:15:00;;;;;;;15.20;7.32;;;;;;;-0.10;100.00;98116.06;4933731;29;20113;-78
2022/02/13 05:17:26;;;;;;;17.90;8.05;;;;;;;-0.05;100.00;98136.63;4933382;29;20528;-78
2022/02/13 05:19:53;;;;;;;17.92;8.30;;;;;;;-0.11;100.00;98141.06;4932586;29;20058;-76
2022/02/13 05:22:19;;;;;;;17.52;7.50;;;;;;;-0.13;100.00;98134.38;4932914;29;20079;-78
2022/02/13 05:24:47;;;;;;;19.20;7.75;;;;;;;-0.20;100.00;98137.13;4933844;29;20106;-76
2022/02/13 05:27:16;;;;;;;20.05;7.63;;;;;;;-0.23;100.00;98144.75;4952222;29;20150;-76
2022/02/13 05:29:43;;;;;;;17.13;7.53;;;;;;;-0.41;100.00;98132.41;4949948;28;20051;-78
2022/02/13 05:32:10;;;;;;;15.27;7.15;;;;;;;-0.38;100.00;98123.16;4951237;28;20055;-77
2022/02/13 05:34:37;;;;;;;18.00;8.02;;;;;;;-0.36;100.00;98129.06;4950978;28;20065;-76
2022/02/13 05:37:04;;;;;;;17.17;7.90;;;;;;;-0.36;100.00;98124.53;4950904;28;20462;-76
2022/02/13 05:39:31;;;;;;;18.88;7.82;;;;;;;-0.42;100.00;98127.34;4950703;28;20162;-77
2022/02/13 05:41:57;;;;;;;20.00;8.02;;;;;;;-0.43;100.00;98110.56;4949592;29;20078;-77
2022/02/13 05:44:25;;;;;;;18.33;7.57;;;;;;;-0.42;100.00;98114.84;4950016;28;20075;-75
2022/02/13 05:46:51;;;;;;;13.13;6.72;;;;;;;-0.36;100.00;98116.56;4951445;28;20051;-77
2022/02/13 05:49:18;;;;;;;13.23;6.50;;;;;;;-0.55;100.00;98103.63;4951454;28;20386;-77
2022/02/13 05:51:46;;;;;;;15.73;7.30;;;;;;;-0.58;100.00;98096.94;4952218;28;20051;-77
2022/02/13 05:54:12;;;;;;;16.27;7.05;;;;;;;-0.55;100.00;98096.47;4952870;28;20059;-79
2022/02/13 05:56:41;;;;;;;15.77;7.50;;;;;;;-0.46;100.00;98104.88;4952373;29;20114;-77
2022/02/13 05:59:08;;;;;;;18.30;7.05;;;;;;;-0.55;100.00;98109.78;4951710;28;20047;-79
2022/02/13 06:01:34;;;;;;;15.20;7.00;;;;;;;-0.53;100.00;98097.06;4953171;28;20071;-79
2022/02/13 06:04:01;;;;;;;13.70;7.20;;;;;;;-0.62;100.00;98103.78;4952475;28;20089;-78
2022/02/13 06:06:27;;;;;;;16.83;7.30;;;;;;;-0.64;100.00;98106.66;4950939;28;20055;-78
2022/02/13 06:08:54;;;;;;;15.75;7.05;;;;;;;-0.50;100.00;98101.09;4950579;28;20547;-76
2022/02/13 06:11:20;;;;;;;14.23;7.03;;;;;;;-0.64;100.00;98077.41;4952832;28;20431;-77
2022/02/13 06:13:48;;;;;;;15.10;6.90;;;;;;;-0.56;100.00;98092.19;4952082;28;20051;-78
2022/02/13 06:16:14;;;;;;;16.45;7.05;;;;;;;-0.72;100.00;98087.56;4950702;28;20456;-77
2022/02/13 06:18:41;;;;;;;21.55;7.63;;;;;;;-0.77;100.00;98092.78;4950612;28;20059;-79
2022/02/13 06:21:08;;;;;;;16.27;6.75;;;;;;;-0.77;100.00;98090.13;4951137;28;20071;-77
2022/02/13 06:23:34;;;;;;;16.70;6.90;;;;;;;-0.78;100.00;98093.84;4951053;28;20062;-79
2022/02/13 06:26:01;;;;;;;15.93;7.20;;;;;;;-0.74;100.00;98090.47;4941915;28;20299;-78
2022/02/13 06:28:28;;;;;;;14.13;6.68;;;;;;;-0.80;100.00;98078.09;4950282;28;20051;-77
2022/02/13 06:30:55;;;;;;;13.23;6.43;;;;;;;-0.67;100.00;98082.38;4949028;28;20054;-77
2022/02/13 06:33:21;;;;;;;15.93;6.80;;;;;;;-0.68;100.00;98075.44;4950619;29;20524;-78
2022/02/13 06:35:48;;;;;;;14.00;6.82;;;;;;;-0.75;100.00;98085.41;4949768;28;20397;-77
2022/02/13 06:38:15;;;;;;;19.45;6.70;;;;;;;-0.68;100.00;98080.75;4950964;29;20054;-78
2022/02/13 06:40:42;;;;;;;17.00;7.45;;;;;;;-1.02;100.00;98066.44;4952390;28;20058;-78
2022/02/13 06:43:09;;;;;;;16.75;7.57;;;;;;;-0.74;100.00;98071.88;4954394;29;20051;-78
2022/02/13 06:45:37;;;;;;;15.48;8.02;;;;;;;-0.58;100.00;98061.56;4953937;28;20062;-77
2022/02/13 06:48:04;;;;;;;16.40;7.75;;;;;;;-0.46;100.00;98065.00;4953422;29;20279;-77
2022/02/13 06:50:33;;;;;;;18.40;7.28;;;;;;;-0.39;100.00;98058.53;4953076;28;20073;-77
2022/02/13 06:53:01;;;;;;;18.63;7.65;;;;;;;-0.29;100.00;98052.63;4955265;29;20051;-78
2022/02/13 06:55:27;;;;;;;14.55;6.60;;;;;;;-0.31;100.00;98057.38;4954428;28;20050;-77
2022/02/13 06:57:55;;;;;;;14.77;6.93;;;;;;;-0.19;100.00;98061.63;4954530;29;20047;-78
2022/02/13 07:00:22;;;;;;;14.85;7.22;;;;;;;-0.24;100.00;98050.88;4954162;29;20055;-77
2022/02/13 07:02:49;;;;;;;13.40;6.57;;;;;;;-0.23;100.00;98052.47;4955396;29;20055;-77
2022/02/13 07:05:16;;;;;;;15.23;7.40;;;;;;;-0.20;100.00;98046.69;4956350;28;20082;-78
2022/02/13 07:07:42;;;;;;;15.52;7.28;;;;;;;-0.05;100.00;98046.16;4955910;29;20047;-77
2022/02/13 07:10:11;;;;;;;15.85;7.20;;;;;;;-0.06;100.00;98053.38;4954173;29;20051;-77
2022/02/13 07:12:39;;;;;;;16.35;6.95;;;;;;;0.03;100.00;98051.13;4954006;29;20106;-77
2022/02/13 07:15:06;;;;;;;15.38;7.68;;;;;;;0.03;100.00;98048.44;4953233;29;20228;-76
2022/02/13 07:17:34;;;;;;;14.93;7.45;;;;;;;-0.13;100.00;98043.91;4956100;29;20087;-77
2022/02/13 07:20:02;;;;;;;18.05;7.35;;;;;;;0.24;100.00;98041.66;4962648;29;20047;-78
2022/02/13 07:22:29;;;;;;;12.52;6.40;;;;;;;0.56;100.00;98038.25;4972044;29;20043;-77
2022/02/13 07:24:55;;;;;;;11.20;5.63;;;;;;;0.96;100.00;98043.41;4966531;28;20562;-77
2022/02/13 07:27:22;;;;;;;13.23;5.25;;;;;;;1.32;100.00;98041.28;4953459;28;20102;-78
2022/02/13 07:29:48;;;;;;;12.77;5.00;;;;;;;1.53;100.00;98035.16;4953223;28;20424;-78
2022/02/13 07:32:15;;;;;;;10.50;5.03;;;;;;;1.77;100.00;98039.22;4954021;28;20035;-77
2022/02/13 07:34:41;;;;;;;9.27;4.80;;;;;;;1.91;100.00;98034.31;4944268;28;20515;-78
2022/02/13 07:37:11;;;;;;;13.50;4.88;;;;;;;2.05;100.00;98035.53;4952642;28;20145;-77
2022/02/13 07:39:38;;;;;;;10.30;4.50;;;;;;;2.17;100.00;98042.34;4950849;29;20527;-79
2022/02/13 07:42:05;;;;;;;9.27;4.78;;;;;;;2.30;100.00;98027.78;4949917;28;20058;-76
2022/02/13 07:44:32;;;;;;;11.07;4.60;;;;;;;2.43;100.00;98032.72;4945624;28;20121;-78
2022/02/13 07:46:59;;;;;;;8.98;4.13;;;;;;;2.54;100.00;98042.44;4950509;28;20147;-78
2022/02/13 07:49:31;;;;;;;8.82;3.75;;;;;;;2.64;100.00;98036.38;4952698;28;20046;-78
2022/02/13 07:51:58;;;;;;;6.35;3.80;;;;;;;2.93;100.00;98051.06;4952332;28;20454;-78
2022/02/13 07:54:25;;;;;;;7.18;3.30;;;;;;;2.79;100.00;98031.97;4957053;28;20468;-77
2022/02/13 07:56:51;;;;;;;9.25;3.75;;;;;;;3.02;100.00;98046.88;4957377;28;20195;-78
2022/02/13 07:59:18;;;;;;;6.20;3.58;;;;;;;3.00;99.44;98035.59;4959772;28;20058;-78
2022/02/13 08:01:44;;;;;;;6.65;3.42;;;;;;;3.14;99.05;98044.81;4959589;28;20051;-77
2022/02/13 08:04:13;;;;;;;7.72;3.58;;;;;;;3.28;91.88;98040.63;4962789;28;20264;-79
2022/02/13 08:06:39;;;;;;;6.35;3.15;;;;;;;3.33;86.97;98051.34;4957285;29;20121;-80
2022/02/13 08:09:06;;;;;;;7.63;3.58;;;;;;;3.49;84.66;98049.56;4960270;29;20122;-80
2022/02/13 08:11:33;;;;;;;6.32;3.20;;;;;;;3.52;82.57;98052.56;4953804;28;20051;-78
2022/02/13 08:13:59;;;;;;;6.25;3.08;;;;;;;3.60;76.79;98037.88;4957676;29;20055;-79
2022/02/13 08:16:26;;;;;;;7.63;3.67;;;;;;;3.65;78.07;98041.38;4956923;28;20051;-79
2022/02/13 08:18:55;;;;;;;6.70;3.38;;;;;;;3.83;76.97;98052.69;4957869;28;20039;-77
2022/02/13 08:21:22;;;;;;;6.45;3.08;;;;;;;3.97;77.57;98040.44;4957375;28;20058;-79
2022/02/13 08:23:54;;;;;;;7.45;3.30;;;;;;;4.05;76.81;98042.63;4957965;29;20488;-79
2022/02/13 08:26:20;;;;;;;5.15;2.90;;;;;;;4.31;76.46;98047.78;4955403;28;20059;-77
2022/02/13 08:28:47;;;;;;;8.07;3.13;;;;;;;4.46;76.02;98044.34;4943137;29;20075;-77
2022/02/13 08:31:14;;;;;;;7.32;2.85;;;;;;;4.72;75.38;98040.59;4952599;28;20151;-77
2022/02/13 08:33:41;;;;;;;6.15;2.83;;;;;;;4.73;71.41;98033.38;4953730;29;20063;-76
2022/02/13 08:36:07;;;;;;;7.43;2.60;;;;;;;5.13;73.69;98027.19;4952184;28;20164;-77
2022/02/13 08:38:34;;;;;;;5.50;2.95;;;;;;;5.33;70.89;98019.13;4950653;28;20061;-77
2022/02/13 08:41:00;;;;;;;6.63;3.03;;;;;;;5.32;68.03;98014.81;4954618;28;20083;-79
2022/02/13 08:43:30;;;;;;;8.02;3.13;;;;;;;5.62;68.03;98023.63;4959763;28;20094;-77
2022/02/13 08:45:57;;;;;;;5.35;3.03;;;;;;;5.72;67.66;97995.91;4959007;29;20059;-76
2022/02/13 08:48:23;;;;;;;7.30;2.92;;;;;;;5.97;65.59;98014.66;4950061;28;20055;-78
2022/02/13 08:50:50;;;;;;;5.72;2.63;;;;;;;6.79;63.52;98008.47;4960141;29;20059;-77
2022/02/13 08:53:17;;;;;;;8.05;2.85;;;;;;;7.71;59.62;98011.13;4958497;28;20114;-78
2022/02/13 08:55:44;;;;;;;5.32;2.63;;;;;;;8.50;55.61;97957.22;4959336;28;20505;-78
2022/02/13 08:58:10;;;;;;;6.45;2.88;;;;;;;8.54;54.13;98016.81;4959620;29;20102;-77
2022/02/13 09:00:37;;;;;;;7.50;2.95;;;;;;;8.63;53.76;98007.75;4961940;28;20058;-79
2022/02/13 09:03:04;;;;;;;6.30;2.75;;;;;;;9.10;51.94;97997.84;4963023;28;20047;-78
2022/02/13 09:05:30;;;;;;;7.38;2.80;;;;;;;9.60;52.70;98001.53;4957108;28;20055;-78
2022/02/13 09:07:58;;;;;;;8.70;3.17;;;;;;;9.62;51.88;97981.22;4956112;28;20047;-78
2022/02/13 09:10:25;;;;;;;9.20;2.63;;;;;;;9.98;51.88;97997.53;4959076;29;20341;-78
2022/02/13 09:12:51;;;;;;;5.85;2.63;;;;;;;9.98;50.70;97987.50;4959422;28;20063;-79
2022/02/13 09:15:24;;;;;;;8.82;2.67;;;;;;;10.45;50.57;97999.00;4958302;28;20083;-77
2022/02/13 09:17:50;;;;;;;6.80;2.30;;;;;;;9.82;48.63;97993.53;4955261;28;20059;-81
2022/02/13 09:20:17;;;;;;;6.65;2.97;;;;;;;9.76;49.94;97992.81;4953339;29;20070;-78
2022/02/13 09:22:44;;;;;;;7.38;3.25;;;;;;;10.25;50.08;97988.59;4955268;28;20047;-79
2022/02/13 09:25:10;;;;;;;8.52;2.83;;;;;;;10.23;50.17;97993.50;4944746;28;20055;-80
2022/02/13 09:27:37;;;;;;;4.85;2.50;;;;;;;10.23;50.11;97982.69;4940454;29;20059;-80
2022/02/13 09:30:05;;;;;;;5.85;2.95;;;;;;;10.29;49.71;97978.78;4958146;29;20051;-80
2022/02/13 09:32:32;;;;;;;7.28;3.10;;;;;;;11.27;48.69;97961.50;4961665;28;20118;-79
2022/02/13 09:34:58;;;;;;;6.50;2.47;;;;;;;11.01;49.44;97969.47;4952505;29;20059;-80
2022/02/13 09:37:25;;;;;;;8.75;3.10;;;;;;;11.85;48.47;97972.94;4953144;29;20110;-79
2022/02/13 09:39:54;;;;;;;5.57;3.10;;;;;;;11.81;48.11;97971.16;4955690;28;20047;-79
2022/02/13 09:42:21;;;;;;;8.40;3.15;;;;;;;-141.50;100.00;63355.56;4957648;28;20114;-79
2022/02/13 09:44:48;;;;;;;7.05;3.28;;;;;;;13.46;45.29;97967.03;4959255;28;20141;-80
2022/02/13 09:47:18;;;;;;;9.73;3.42;;;;;;;12.69;44.89;97966.34;4957092;28;20051;-79
2022/02/13 09:49:45;;;;;;;6.15;3.03;;;;;;;13.53;45.13;97964.59;4957871;28;20113;-78
2022/02/13 09:52:12;;;;;;;10.13;3.35;;;;;;;13.53;44.94;97971.97;4961676;29;20086;-79
2022/02/13 09:54:39;;;;;;;8.80;3.22;;;;;;;14.03;43.78;97961.97;4959055;28;20082;-77
2022/02/13 10:00:01;;;;;;;6.38;2.70;;;;;;;14.82;41.44;97945.56;4953701;28;20049;-79
2022/02/13 10:02:33;;;;;;;12.10;3.03;;;;;;;15.79;41.84;97962.19;4950130;28;20055;-79
2022/02/13 10:05:00;;;;;;;9.07;3.08;;;;;;;15.81;40.11;97957.19;4943664;29;20121;-78
2022/02/13 10:07:27;;;;;;;8.38;3.00;;;;;;;14.90;40.89;97947.41;4948334;28;20094;-77
2022/02/13 10:10:00;;;;;;;7.35;3.00;;;;;;;15.87;40.99;97947.63;4948492;28;20071;-80
2022/02/13 10:12:31;;;;;;;12.00;3.33;;;;;;;15.78;41.42;97955.13;4947661;29;20831;-76
2022/02/13 10:14:58;;;;;;;10.13;2.90;;;;;;;14.52;42.49;97949.50;4951352;28;20051;-80
2022/02/13 10:17:25;;;;;;;7.25;2.60;;;;;;;15.27;41.97;97945.59;4951957;28;20114;-80
2022/02/13 10:19:53;;;;;;;8.40;2.97;;;;;;;14.28;42.14;97946.59;4933760;29;20062;-77
2022/02/13 10:22:33;;;;;;;6.78;2.90;;;;;;;14.09;43.53;97952.47;4935573;29;20094;-78
2022/02/13 10:25:14;;;;;;;8.30;3.50;;;;;;;13.64;43.66;97944.09;4954204;28;20114;-78
2022/02/13 10:27:48;;;;;;;5.95;2.75;;;;;;;13.66;44.03;97943.75;4955466;28;20602;-78
2022/02/13 10:30:44;;;;;;;7.80;2.90;;;;;;;14.29;42.86;97931.88;4948749;29;20047;-77
2022/02/13 10:33:17;;;;;;;6.03;2.88;;;;;;;14.20;43.59;97939.28;4952774;28;20055;-77
2022/02/13 10:36:12;;;;;;;8.13;3.22;;;;;;;14.49;44.02;97941.19;4959058;28;20205;-78
2022/02/13 10:38:41;;;;;;;6.20;3.00;;;;;;;14.42;43.36;97939.00;4955835;28;20063;-78
2022/02/13 10:41:16;;;;;;;10.35;3.15;;;;;;;15.24;41.86;97938.09;4943806;28;20408;-78
2022/02/13 10:43:49;;;;;;;10.35;3.33;;;;;;;14.76;42.48;97927.03;4951221;28;20743;-79
2022/02/13 10:46:17;;;;;;;7.78;3.10;;;;;;;16.01;41.69;97922.69;4942741;28;20052;-79
2022/02/13 10:48:45;;;;;;;5.50;2.75;;;;;;;16.43;40.27;97924.00;4952512;28;20106;-80
2022/02/13 10:51:13;;;;;;;7.28;3.10;;;;;;;15.73;40.33;97916.34;4952660;28;20043;-77
2022/02/13 10:53:41;;;;;;;5.68;2.88;;;;;;;14.81;42.19;97913.97;4951090;28;20211;-78
2022/02/13 10:56:08;;;;;;;9.20;3.63;;;;;;;14.22;43.07;97918.00;4952883;29;20123;-78
2022/02/13 10:58:34;;;;;;;7.43;3.08;;;;;;;15.11;42.62;97911.13;4951028;28;20473;-78
2022/02/13 11:01:01;;;;;;;8.48;3.60;;;;;;;15.22;41.72;97917.75;4953265;28;20122;-79
2022/02/13 11:03:32;;;;;;;6.28;3.20;;;;;;;14.88;42.09;97908.00;4953532;28;20453;-79
2022/02/13 11:06:01;;;;;;;7.43;3.03;;;;;;;14.60;42.93;97899.59;4954533;28;20427;-81
2022/02/13 11:08:42;;;;;;;8.95;3.63;;;;;;;15.31;42.85;97910.25;4955005;28;20051;-79
2022/02/13 11:11:30;;;;;;;9.77;3.28;;;;;;;15.51;42.89;97899.28;4955818;28;20051;-78
2022/02/13 11:14:02;;;;;;;7.32;3.20;;;;;;;16.64;40.65;97891.06;4956456;28;20534;-79
2022/02/13 11:16:34;;;;;;;7.20;3.33;;;;;;;15.95;40.83;97904.97;4953869;29;20062;-80
2022/02/13 11:19:05;;;;;;;9.00;3.58;;;;;;;15.47;42.23;97900.28;4956149;28;20059;-79
2022/02/13 11:21:35;;;;;;;6.82;3.22;;;;;;;15.94;41.91;97893.25;4952512;29;20484;-78
2022/02/13 11:24:04;;;;;;;9.25;3.38;;;;;;;15.23;41.81;97887.38;4952841;28;20055;-80
2022/02/13 11:26:44;;;;;;;7.90;3.15;;;;;;;14.99;42.61;97882.69;4949782;28;20062;-78
2022/02/13 11:29:13;;;;;;;10.60;3.70;;;;;;;15.74;42.01;97883.25;4949016;29;20089;-77
2022/02/13 11:31:50;;;;;;;6.30;2.97;;;;;;;15.55;42.02;97875.63;4951347;29;20102;-79